sensor_id;sensor_type;location;lat;lon;timestamp;P1;durP1;ratioP1;P2;durP2;ratioP2
72127;SDS011;60000;51.030;7.024;2023-04-29T00:02:02;12.10;;;6.03;;
72127;SDS011;60000;51.030;7.024;2023-04-29T00:04:30;13.70;;;6.83;;
72127;SDS011;60000;51.030;7.024;2023-04-29T00:06:56;13.77;;;6.93;;
72127;SDS011;60000;51.030;7.024;2023-04-29T00:09:21;12.07;;;6.00;;
72127;SDS011;60000;51.030;7.024;2023-04-29T00:11:46;11.77;;;6.00;;
72127;SDS011;60000;51.030;7.024;2023-04-29T00:14:12;13.40;;;6.33;;
72127;SDS011;60000;51.030;7.024;2023-04-29T00:16:37;11.13;;;5.68;;
72127;SDS011;60000;51.030;7.024;2023-04-29T00:19:03;10.35;;;5.53;;
72127;SDS011;60000;51.030;7.024;2023-04-29T00:21:28;10.07;;;4.37;;
72127;SDS011;60000;51.030;7.024;2023-04-29T00:23:54;8.33;;;4.33;;
72127;SDS011;60000;51.030;7.024;2023-04-29T00:26:19;8.98;;;4.03;;
72127;SDS011;60000;51.030;7.024;2023-04-29T00:28:44;8.57;;;3.75;;
72127;SDS011;60000;51.030;7.024;2023-04-29T00:31:10;9.37;;;3.90;;
72127;SDS011;60000;51.030;7.024;2023-04-29T00:33:35;8.27;;;3.57;;
72127;SDS011;60000;51.030;7.024;2023-04-29T00:36:01;8.27;;;4.13;;
72127;SDS011;60000;51.030;7.024;2023-04-29T00:38:26;9.45;;;4.20;;
72127;SDS011;60000;51.030;7.024;2023-04-29T00:40:52;9.53;;;4.20;;
72127;SDS011;60000;51.030;7.024;2023-04-29T00:43:18;9.05;;;4.50;;
72127;SDS011;60000;51.030;7.024;2023-04-29T00:45:44;10.00;;;5.00;;
72127;SDS011;60000;51.030;7.024;2023-04-29T00:48:10;11.68;;;5.35;;
72127;SDS011;60000;51.030;7.024;2023-04-29T00:50:36;10.95;;;5.22;;
72127;SDS011;60000;51.030;7.024;2023-04-29T00:53:01;11.63;;;5.65;;
72127;SDS011;60000;51.030;7.024;2023-04-29T00:55:27;10.73;;;5.60;;
72127;SDS011;60000;51.030;7.024;2023-04-29T00:57:54;13.02;;;6.28;;
72127;SDS011;60000;51.030;7.024;2023-04-29T01:00:20;13.40;;;6.57;;
72127;SDS011;60000;51.030;7.024;2023-04-29T01:02:45;13.90;;;6.50;;
72127;SDS011;60000;51.030;7.024;2023-04-29T01:05:11;14.10;;;7.07;;
72127;SDS011;60000;51.030;7.024;2023-04-29T01:07:46;14.30;;;7.87;;
72127;SDS011;60000;51.030;7.024;2023-04-29T01:10:27;13.48;;;6.50;;
72127;SDS011;60000;51.030;7.024;2023-04-29T01:12:58;14.13;;;7.60;;
72127;SDS011;60000;51.030;7.024;2023-04-29T01:15:56;17.10;;;7.95;;
72127;SDS011;60000;51.030;7.024;2023-04-29T01:18:30;16.05;;;8.85;;
72127;SDS011;60000;51.030;7.024;2023-04-29T01:20:58;18.40;;;8.63;;
72127;SDS011;60000;51.030;7.024;2023-04-29T01:23:27;18.23;;;9.07;;
72127;SDS011;60000;51.030;7.024;2023-04-29T01:25:53;19.27;;;8.98;;
72127;SDS011;60000;51.030;7.024;2023-04-29T01:31:14;19.77;;;9.90;;
72127;SDS011;60000;51.030;7.024;2023-04-29T01:36:32;20.05;;;10.85;;
72127;SDS011;60000;51.030;7.024;2023-04-29T01:39:13;23.45;;;11.75;;
72127;SDS011;60000;51.030;7.024;2023-04-29T01:42:04;33.07;;;15.30;;
72127;SDS011;60000;51.030;7.024;2023-04-29T01:44:38;35.88;;;18.38;;
72127;SDS011;60000;51.030;7.024;2023-04-29T01:47:06;35.95;;;18.20;;
72127;SDS011;60000;51.030;7.024;2023-04-29T01:49:34;35.65;;;17.80;;
72127;SDS011;60000;51.030;7.024;2023-04-29T01:52:01;35.67;;;18.08;;
72127;SDS011;60000;51.030;7.024;2023-04-29T01:54:27;37.17;;;19.00;;
72127;SDS011;60000;51.030;7.024;2023-04-29T01:56:52;35.92;;;17.80;;
72127;SDS011;60000;51.030;7.024;2023-04-29T01:59:18;39.72;;;19.50;;
72127;SDS011;60000;51.030;7.024;2023-04-29T02:01:43;38.30;;;18.63;;
72127;SDS011;60000;51.030;7.024;2023-04-29T02:04:09;39.93;;;18.13;;
72127;SDS011;60000;51.030;7.024;2023-04-29T02:06:34;38.63;;;18.42;;
72127;SDS011;60000;51.030;7.024;2023-04-29T02:08:59;35.63;;;17.77;;
72127;SDS011;60000;51.030;7.024;2023-04-29T02:11:25;36.57;;;18.03;;
72127;SDS011;60000;51.030;7.024;2023-04-29T02:13:51;40.13;;;18.95;;
72127;SDS011;60000;51.030;7.024;2023-04-29T02:16:16;38.63;;;17.88;;
72127;SDS011;60000;51.030;7.024;2023-04-29T02:18:42;30.13;;;14.53;;
72127;SDS011;60000;51.030;7.024;2023-04-29T02:21:07;36.07;;;17.47;;
72127;SDS011;60000;51.030;7.024;2023-04-29T02:23:33;40.50;;;19.17;;
72127;SDS011;60000;51.030;7.024;2023-04-29T02:25:59;42.50;;;20.17;;
72127;SDS011;60000;51.030;7.024;2023-04-29T02:28:25;44.22;;;20.45;;
72127;SDS011;60000;51.030;7.024;2023-04-29T02:30:51;42.80;;;19.97;;
72127;SDS011;60000;51.030;7.024;2023-04-29T02:33:16;42.45;;;19.40;;
72127;SDS011;60000;51.030;7.024;2023-04-29T02:35:42;40.27;;;18.60;;
72127;SDS011;60000;51.030;7.024;2023-04-29T02:38:08;35.70;;;15.93;;
72127;SDS011;60000;51.030;7.024;2023-04-29T02:40:34;37.75;;;17.02;;
72127;SDS011;60000;51.030;7.024;2023-04-29T02:43:04;42.67;;;20.00;;
72127;SDS011;60000;51.030;7.024;2023-04-29T02:45:29;41.13;;;18.40;;
72127;SDS011;60000;51.030;7.024;2023-04-29T02:47:55;43.50;;;19.00;;
72127;SDS011;60000;51.030;7.024;2023-04-29T02:50:20;41.90;;;18.03;;
72127;SDS011;60000;51.030;7.024;2023-04-29T02:52:45;37.77;;;17.63;;
72127;SDS011;60000;51.030;7.024;2023-04-29T02:55:11;50.93;;;21.03;;
72127;SDS011;60000;51.030;7.024;2023-04-29T02:57:36;48.53;;;22.00;;
72127;SDS011;60000;51.030;7.024;2023-04-29T03:00:02;51.58;;;22.45;;
72127;SDS011;60000;51.030;7.024;2023-04-29T03:02:27;48.50;;;20.87;;
72127;SDS011;60000;51.030;7.024;2023-04-29T03:04:53;49.93;;;22.40;;
72127;SDS011;60000;51.030;7.024;2023-04-29T03:07:18;55.43;;;22.57;;
72127;SDS011;60000;51.030;7.024;2023-04-29T03:09:43;50.13;;;21.73;;
72127;SDS011;60000;51.030;7.024;2023-04-29T03:12:09;45.13;;;19.95;;
72127;SDS011;60000;51.030;7.024;2023-04-29T03:14:34;52.53;;;22.67;;
72127;SDS011;60000;51.030;7.024;2023-04-29T03:17:00;54.13;;;21.80;;
72127;SDS011;60000;51.030;7.024;2023-04-29T03:19:25;46.83;;;19.10;;
72127;SDS011;60000;51.030;7.024;2023-04-29T03:21:51;49.87;;;20.70;;
72127;SDS011;60000;51.030;7.024;2023-04-29T03:24:16;53.13;;;21.10;;
72127;SDS011;60000;51.030;7.024;2023-04-29T03:26:41;45.63;;;18.87;;
72127;SDS011;60000;51.030;7.024;2023-04-29T03:29:07;51.27;;;21.03;;
72127;SDS011;60000;51.030;7.024;2023-04-29T03:31:32;47.70;;;18.60;;
72127;SDS011;60000;51.030;7.024;2023-04-29T03:33:58;46.53;;;18.93;;
72127;SDS011;60000;51.030;7.024;2023-04-29T03:36:23;45.67;;;18.20;;
72127;SDS011;60000;51.030;7.024;2023-04-29T03:38:49;47.83;;;17.27;;
72127;SDS011;60000;51.030;7.024;2023-04-29T03:41:14;46.87;;;18.47;;
72127;SDS011;60000;51.030;7.024;2023-04-29T03:43:40;44.07;;;18.07;;
72127;SDS011;60000;51.030;7.024;2023-04-29T03:46:07;39.88;;;16.10;;
72127;SDS011;60000;51.030;7.024;2023-04-29T03:48:33;40.77;;;16.77;;
72127;SDS011;60000;51.030;7.024;2023-04-29T03:50:58;42.80;;;16.03;;
72127;SDS011;60000;51.030;7.024;2023-04-29T03:53:24;49.55;;;18.50;;
72127;SDS011;60000;51.030;7.024;2023-04-29T03:55:50;42.80;;;16.87;;
72127;SDS011;60000;51.030;7.024;2023-04-29T03:58:15;39.37;;;16.30;;
72127;SDS011;60000;51.030;7.024;2023-04-29T04:00:40;39.58;;;15.10;;
72127;SDS011;60000;51.030;7.024;2023-04-29T04:03:06;39.72;;;16.80;;
72127;SDS011;60000;51.030;7.024;2023-04-29T04:05:31;42.13;;;15.53;;
72127;SDS011;60000;51.030;7.024;2023-04-29T04:07:56;39.63;;;15.87;;
72127;SDS011;60000;51.030;7.024;2023-04-29T04:10:22;39.57;;;16.53;;
72127;SDS011;60000;51.030;7.024;2023-04-29T04:12:47;42.83;;;17.77;;
72127;SDS011;60000;51.030;7.024;2023-04-29T04:15:12;41.13;;;15.63;;
72127;SDS011;60000;51.030;7.024;2023-04-29T04:17:38;38.63;;;16.50;;
72127;SDS011;60000;51.030;7.024;2023-04-29T04:20:03;41.73;;;17.50;;
72127;SDS011;60000;51.030;7.024;2023-04-29T04:22:29;41.45;;;15.73;;
72127;SDS011;60000;51.030;7.024;2023-04-29T04:24:54;38.30;;;15.10;;
72127;SDS011;60000;51.030;7.024;2023-04-29T04:27:20;46.13;;;17.23;;
72127;SDS011;60000;51.030;7.024;2023-04-29T04:29:45;41.17;;;16.23;;
72127;SDS011;60000;51.030;7.024;2023-04-29T04:32:11;41.13;;;16.43;;
72127;SDS011;60000;51.030;7.024;2023-04-29T04:34:36;41.80;;;16.73;;
72127;SDS011;60000;51.030;7.024;2023-04-29T04:37:03;40.42;;;16.58;;
72127;SDS011;60000;51.030;7.024;2023-04-29T04:39:29;42.13;;;15.87;;
72127;SDS011;60000;51.030;7.024;2023-04-29T04:41:54;37.67;;;16.40;;
72127;SDS011;60000;51.030;7.024;2023-04-29T04:44:19;37.13;;;16.17;;
72127;SDS011;60000;51.030;7.024;2023-04-29T04:46:45;39.50;;;15.57;;
72127;SDS011;60000;51.030;7.024;2023-04-29T04:49:10;37.20;;;15.90;;
72127;SDS011;60000;51.030;7.024;2023-04-29T04:51:35;37.03;;;16.00;;
72127;SDS011;60000;51.030;7.024;2023-04-29T04:54:01;36.17;;;14.87;;
72127;SDS011;60000;51.030;7.024;2023-04-29T04:56:26;39.23;;;16.33;;
72127;SDS011;60000;51.030;7.024;2023-04-29T04:58:51;34.33;;;16.47;;
72127;SDS011;60000;51.030;7.024;2023-04-29T05:01:17;34.30;;;14.83;;
72127;SDS011;60000;51.030;7.024;2023-04-29T05:03:42;35.17;;;13.48;;
72127;SDS011;60000;51.030;7.024;2023-04-29T05:06:07;33.13;;;14.43;;
72127;SDS011;60000;51.030;7.024;2023-04-29T05:08:33;37.17;;;15.83;;
72127;SDS011;60000;51.030;7.024;2023-04-29T05:10:58;32.63;;;13.10;;
72127;SDS011;60000;51.030;7.024;2023-04-29T05:13:23;30.93;;;13.83;;
72127;SDS011;60000;51.030;7.024;2023-04-29T05:15:52;32.15;;;13.82;;
72127;SDS011;60000;51.030;7.024;2023-04-29T05:18:17;35.13;;;13.83;;
72127;SDS011;60000;51.030;7.024;2023-04-29T05:20:43;32.70;;;14.20;;
72127;SDS011;60000;51.030;7.024;2023-04-29T05:23:08;30.73;;;14.48;;
72127;SDS011;60000;51.030;7.024;2023-04-29T05:25:34;36.03;;;14.80;;
72127;SDS011;60000;51.030;7.024;2023-04-29T05:28:00;33.60;;;13.27;;
72127;SDS011;60000;51.030;7.024;2023-04-29T05:30:27;28.35;;;12.02;;
72127;SDS011;60000;51.030;7.024;2023-04-29T05:32:52;30.00;;;13.30;;
72127;SDS011;60000;51.030;7.024;2023-04-29T05:35:17;31.37;;;14.00;;
72127;SDS011;60000;51.030;7.024;2023-04-29T05:37:43;26.80;;;12.35;;
72127;SDS011;60000;51.030;7.024;2023-04-29T05:40:08;32.90;;;13.20;;
72127;SDS011;60000;51.030;7.024;2023-04-29T05:42:34;27.67;;;10.82;;
72127;SDS011;60000;51.030;7.024;2023-04-29T05:44:59;26.20;;;11.65;;
72127;SDS011;60000;51.030;7.024;2023-04-29T05:47:25;23.87;;;10.47;;
72127;SDS011;60000;51.030;7.024;2023-04-29T05:49:50;23.97;;;10.83;;
72127;SDS011;60000;51.030;7.024;2023-04-29T05:52:16;22.70;;;10.23;;
72127;SDS011;60000;51.030;7.024;2023-04-29T05:54:41;21.17;;;10.00;;
72127;SDS011;60000;51.030;7.024;2023-04-29T05:57:06;22.77;;;10.10;;
72127;SDS011;60000;51.030;7.024;2023-04-29T05:59:32;26.50;;;10.87;;
72127;SDS011;60000;51.030;7.024;2023-04-29T06:01:58;22.60;;;10.52;;
72127;SDS011;60000;51.030;7.024;2023-04-29T06:04:24;21.17;;;9.63;;
72127;SDS011;60000;51.030;7.024;2023-04-29T06:06:50;22.75;;;10.20;;
72127;SDS011;60000;51.030;7.024;2023-04-29T06:09:17;23.35;;;10.80;;
72127;SDS011;60000;51.030;7.024;2023-04-29T06:11:43;23.63;;;11.05;;
72127;SDS011;60000;51.030;7.024;2023-04-29T06:14:09;23.57;;;10.70;;
72127;SDS011;60000;51.030;7.024;2023-04-29T06:16:35;23.67;;;10.45;;
72127;SDS011;60000;51.030;7.024;2023-04-29T06:19:00;18.33;;;8.67;;
72127;SDS011;60000;51.030;7.024;2023-04-29T06:21:26;20.05;;;9.70;;
72127;SDS011;60000;51.030;7.024;2023-04-29T06:23:52;22.23;;;10.55;;
72127;SDS011;60000;51.030;7.024;2023-04-29T06:26:18;20.42;;;9.80;;
72127;SDS011;60000;51.030;7.024;2023-04-29T06:28:44;18.92;;;9.43;;
72127;SDS011;60000;51.030;7.024;2023-04-29T06:31:10;22.67;;;10.70;;
72127;SDS011;60000;51.030;7.024;2023-04-29T06:33:36;22.63;;;11.33;;
72127;SDS011;60000;51.030;7.024;2023-04-29T06:36:01;20.83;;;10.83;;
72127;SDS011;60000;51.030;7.024;2023-04-29T06:38:27;22.75;;;10.48;;
72127;SDS011;60000;51.030;7.024;2023-04-29T06:40:52;23.73;;;11.27;;
72127;SDS011;60000;51.030;7.024;2023-04-29T06:43:17;23.70;;;9.97;;
72127;SDS011;60000;51.030;7.024;2023-04-29T06:45:46;21.03;;;10.17;;
72127;SDS011;60000;51.030;7.024;2023-04-29T06:48:11;19.83;;;10.13;;
72127;SDS011;60000;51.030;7.024;2023-04-29T06:50:37;22.30;;;11.13;;
72127;SDS011;60000;51.030;7.024;2023-04-29T06:53:02;18.90;;;9.67;;
72127;SDS011;60000;51.030;7.024;2023-04-29T06:55:27;20.37;;;9.70;;
72127;SDS011;60000;51.030;7.024;2023-04-29T06:57:53;17.93;;;8.83;;
72127;SDS011;60000;51.030;7.024;2023-04-29T07:00:18;21.10;;;10.35;;
72127;SDS011;60000;51.030;7.024;2023-04-29T07:02:45;23.55;;;11.98;;
72127;SDS011;60000;51.030;7.024;2023-04-29T07:05:10;22.00;;;11.67;;
72127;SDS011;60000;51.030;7.024;2023-04-29T07:07:36;22.20;;;11.53;;
72127;SDS011;60000;51.030;7.024;2023-04-29T07:10:01;22.57;;;11.60;;
72127;SDS011;60000;51.030;7.024;2023-04-29T07:12:26;22.85;;;11.98;;
72127;SDS011;60000;51.030;7.024;2023-04-29T07:14:52;23.87;;;11.97;;
72127;SDS011;60000;51.030;7.024;2023-04-29T07:17:17;21.73;;;11.47;;
72127;SDS011;60000;51.030;7.024;2023-04-29T07:19:42;22.73;;;12.57;;
72127;SDS011;60000;51.030;7.024;2023-04-29T07:22:08;20.60;;;11.77;;
72127;SDS011;60000;51.030;7.024;2023-04-29T07:24:33;24.03;;;11.73;;
72127;SDS011;60000;51.030;7.024;2023-04-29T07:26:58;22.03;;;12.33;;
72127;SDS011;60000;51.030;7.024;2023-04-29T07:29:24;20.20;;;11.13;;
72127;SDS011;60000;51.030;7.024;2023-04-29T07:31:49;22.30;;;10.47;;
72127;SDS011;60000;51.030;7.024;2023-04-29T07:34:14;23.50;;;12.47;;
72127;SDS011;60000;51.030;7.024;2023-04-29T07:36:40;23.53;;;11.53;;
72127;SDS011;60000;51.030;7.024;2023-04-29T07:39:05;19.57;;;9.73;;
72127;SDS011;60000;51.030;7.024;2023-04-29T07:41:30;22.10;;;11.70;;
72127;SDS011;60000;51.030;7.024;2023-04-29T07:43:56;23.83;;;12.57;;
72127;SDS011;60000;51.030;7.024;2023-04-29T07:46:21;22.70;;;12.10;;
72127;SDS011;60000;51.030;7.024;2023-04-29T07:48:47;24.92;;;14.25;;
72127;SDS011;60000;51.030;7.024;2023-04-29T07:51:13;22.20;;;12.57;;
72127;SDS011;60000;51.030;7.024;2023-04-29T07:53:39;19.63;;;11.48;;
72127;SDS011;60000;51.030;7.024;2023-04-29T07:56:05;20.13;;;10.75;;
72127;SDS011;60000;51.030;7.024;2023-04-29T07:58:32;24.23;;;13.85;;
72127;SDS011;60000;51.030;7.024;2023-04-29T08:01:03;24.47;;;12.80;;
72127;SDS011;60000;51.030;7.024;2023-04-29T08:03:30;22.00;;;11.40;;
72127;SDS011;60000;51.030;7.024;2023-04-29T08:05:59;21.93;;;11.33;;
72127;SDS011;60000;51.030;7.024;2023-04-29T08:08:25;20.80;;;10.85;;
72127;SDS011;60000;51.030;7.024;2023-04-29T08:10:50;19.30;;;10.43;;
72127;SDS011;60000;51.030;7.024;2023-04-29T08:13:16;23.00;;;10.73;;
72127;SDS011;60000;51.030;7.024;2023-04-29T08:15:41;19.30;;;10.50;;
72127;SDS011;60000;51.030;7.024;2023-04-29T08:18:07;19.10;;;9.75;;
72127;SDS011;60000;51.030;7.024;2023-04-29T08:20:32;17.20;;;8.73;;
72127;SDS011;60000;51.030;7.024;2023-04-29T08:22:58;18.10;;;9.03;;
72127;SDS011;60000;51.030;7.024;2023-04-29T08:25:24;16.10;;;8.35;;
72127;SDS011;60000;51.030;7.024;2023-04-29T08:27:51;18.53;;;9.30;;
72127;SDS011;60000;51.030;7.024;2023-04-29T08:30:16;17.65;;;9.25;;
72127;SDS011;60000;51.030;7.024;2023-04-29T08:32:42;19.10;;;8.90;;
72127;SDS011;60000;51.030;7.024;2023-04-29T08:35:07;18.17;;;9.47;;
72127;SDS011;60000;51.030;7.024;2023-04-29T08:37:33;15.25;;;8.05;;
72127;SDS011;60000;51.030;7.024;2023-04-29T08:39:58;18.13;;;8.50;;
72127;SDS011;60000;51.030;7.024;2023-04-29T08:42:33;16.37;;;7.40;;
72127;SDS011;60000;51.030;7.024;2023-04-29T08:45:01;15.15;;;7.15;;
72127;SDS011;60000;51.030;7.024;2023-04-29T08:47:31;15.60;;;7.85;;
72127;SDS011;60000;51.030;7.024;2023-04-29T08:50:01;17.25;;;8.98;;
72127;SDS011;60000;51.030;7.024;2023-04-29T08:52:30;15.82;;;8.73;;
72127;SDS011;60000;51.030;7.024;2023-04-29T08:54:59;17.45;;;9.57;;
72127;SDS011;60000;51.030;7.024;2023-04-29T08:57:29;17.67;;;8.70;;
72127;SDS011;60000;51.030;7.024;2023-04-29T09:00:03;17.27;;;9.52;;
72127;SDS011;60000;51.030;7.024;2023-04-29T09:02:30;18.92;;;10.02;;
72127;SDS011;60000;51.030;7.024;2023-04-29T09:04:59;20.40;;;9.93;;
72127;SDS011;60000;51.030;7.024;2023-04-29T09:07:30;19.15;;;10.07;;
72127;SDS011;60000;51.030;7.024;2023-04-29T09:09:56;16.58;;;8.98;;
72127;SDS011;60000;51.030;7.024;2023-04-29T09:12:22;18.15;;;9.23;;
72127;SDS011;60000;51.030;7.024;2023-04-29T09:14:48;20.93;;;11.50;;
72127;SDS011;60000;51.030;7.024;2023-04-29T09:17:13;18.17;;;10.37;;
72127;SDS011;60000;51.030;7.024;2023-04-29T09:19:40;21.80;;;11.10;;
72127;SDS011;60000;51.030;7.024;2023-04-29T09:22:06;19.90;;;10.40;;
72127;SDS011;60000;51.030;7.024;2023-04-29T09:24:32;19.83;;;10.80;;
72127;SDS011;60000;51.030;7.024;2023-04-29T09:26:58;20.17;;;11.18;;
72127;SDS011;60000;51.030;7.024;2023-04-29T09:29:24;19.60;;;10.27;;
72127;SDS011;60000;51.030;7.024;2023-04-29T09:31:53;20.10;;;11.52;;
72127;SDS011;60000;51.030;7.024;2023-04-29T09:34:29;20.63;;;11.17;;
72127;SDS011;60000;51.030;7.024;2023-04-29T09:36:56;21.15;;;10.77;;
72127;SDS011;60000;51.030;7.024;2023-04-29T09:39:23;20.48;;;10.20;;
72127;SDS011;60000;51.030;7.024;2023-04-29T09:44:18;21.38;;;12.20;;
72127;SDS011;60000;51.030;7.024;2023-04-29T09:46:54;21.97;;;12.07;;
72127;SDS011;60000;51.030;7.024;2023-04-29T09:49:28;27.90;;;13.48;;
72127;SDS011;60000;51.030;7.024;2023-04-29T09:54:20;21.90;;;13.18;;
72127;SDS011;60000;51.030;7.024;2023-04-29T09:56:47;24.73;;;13.88;;
72127;SDS011;60000;51.030;7.024;2023-04-29T09:59:14;25.20;;;14.00;;
72127;SDS011;60000;51.030;7.024;2023-04-29T10:01:40;26.52;;;15.40;;
72127;SDS011;60000;51.030;7.024;2023-04-29T10:04:06;35.30;;;19.10;;
72127;SDS011;60000;51.030;7.024;2023-04-29T10:06:34;35.67;;;19.70;;
72127;SDS011;60000;51.030;7.024;2023-04-29T10:09:02;39.13;;;22.58;;
72127;SDS011;60000;51.030;7.024;2023-04-29T10:11:28;38.42;;;20.13;;
72127;SDS011;60000;51.030;7.024;2023-04-29T10:13:54;39.05;;;21.17;;
72127;SDS011;60000;51.030;7.024;2023-04-29T10:16:30;36.13;;;20.80;;
72127;SDS011;60000;51.030;7.024;2023-04-29T10:18:58;39.08;;;21.88;;
72127;SDS011;60000;51.030;7.024;2023-04-29T10:21:28;36.30;;;19.35;;
72127;SDS011;60000;51.030;7.024;2023-04-29T10:23:58;34.78;;;19.23;;
72127;SDS011;60000;51.030;7.024;2023-04-29T10:26:25;37.47;;;20.67;;
72127;SDS011;60000;51.030;7.024;2023-04-29T10:28:54;40.90;;;21.80;;
72127;SDS011;60000;51.030;7.024;2023-04-29T10:31:20;43.63;;;22.70;;
72127;SDS011;60000;51.030;7.024;2023-04-29T10:33:46;42.03;;;23.25;;
72127;SDS011;60000;51.030;7.024;2023-04-29T10:36:13;52.00;;;25.35;;
72127;SDS011;60000;51.030;7.024;2023-04-29T10:38:41;45.03;;;23.13;;
72127;SDS011;60000;51.030;7.024;2023-04-29T10:41:15;49.30;;;24.20;;
72127;SDS011;60000;51.030;7.024;2023-04-29T10:43:44;46.30;;;23.00;;
72127;SDS011;60000;51.030;7.024;2023-04-29T10:46:23;38.67;;;20.30;;
72127;SDS011;60000;51.030;7.024;2023-04-29T10:48:56;49.20;;;25.10;;
72127;SDS011;60000;51.030;7.024;2023-04-29T10:56:48;43.80;;;22.97;;
72127;SDS011;60000;51.030;7.024;2023-04-29T10:59:16;48.47;;;23.95;;
72127;SDS011;60000;51.030;7.024;2023-04-29T11:01:45;47.70;;;23.98;;
72127;SDS011;60000;51.030;7.024;2023-04-29T11:04:11;47.95;;;25.67;;
72127;SDS011;60000;51.030;7.024;2023-04-29T11:06:38;56.60;;;27.37;;
72127;SDS011;60000;51.030;7.024;2023-04-29T11:09:12;49.10;;;25.20;;
72127;SDS011;60000;51.030;7.024;2023-04-29T11:11:56;48.53;;;22.20;;
72127;SDS011;60000;51.030;7.024;2023-04-29T11:14:25;42.20;;;22.40;;
72127;SDS011;60000;51.030;7.024;2023-04-29T11:16:55;44.55;;;23.58;;
72127;SDS011;60000;51.030;7.024;2023-04-29T11:19:23;38.77;;;19.47;;
72127;SDS011;60000;51.030;7.024;2023-04-29T11:22:02;32.40;;;15.88;;
72127;SDS011;60000;51.030;7.024;2023-04-29T11:24:33;32.22;;;15.10;;
72127;SDS011;60000;51.030;7.024;2023-04-29T11:27:00;44.55;;;26.38;;
72127;SDS011;60000;51.030;7.024;2023-04-29T11:29:29;35.58;;;20.35;;
72127;SDS011;60000;51.030;7.024;2023-04-29T11:32:01;37.97;;;19.37;;
72127;SDS011;60000;51.030;7.024;2023-04-29T11:34:27;30.17;;;17.38;;
72127;SDS011;60000;51.030;7.024;2023-04-29T11:36:52;28.17;;;14.33;;
72127;SDS011;60000;51.030;7.024;2023-04-29T11:39:18;32.47;;;15.32;;
72127;SDS011;60000;51.030;7.024;2023-04-29T11:41:43;28.13;;;15.27;;
72127;SDS011;60000;51.030;7.024;2023-04-29T11:44:09;28.50;;;14.00;;
72127;SDS011;60000;51.030;7.024;2023-04-29T11:46:36;29.05;;;14.57;;
72127;SDS011;60000;51.030;7.024;2023-04-29T11:49:01;24.37;;;12.90;;
72127;SDS011;60000;51.030;7.024;2023-04-29T11:51:27;31.25;;;15.23;;
72127;SDS011;60000;51.030;7.024;2023-04-29T11:53:52;25.57;;;13.67;;
72127;SDS011;60000;51.030;7.024;2023-04-29T11:56:21;26.85;;;12.70;;
72127;SDS011;60000;51.030;7.024;2023-04-29T11:58:52;30.57;;;15.43;;
72127;SDS011;60000;51.030;7.024;2023-04-29T12:01:19;28.45;;;13.48;;
72127;SDS011;60000;51.030;7.024;2023-04-29T12:03:47;31.25;;;13.98;;
72127;SDS011;60000;51.030;7.024;2023-04-29T12:06:13;25.30;;;12.77;;
72127;SDS011;60000;51.030;7.024;2023-04-29T12:08:39;25.20;;;12.38;;
72127;SDS011;60000;51.030;7.024;2023-04-29T12:11:05;31.55;;;14.93;;
72127;SDS011;60000;51.030;7.024;2023-04-29T12:13:31;28.75;;;13.65;;
72127;SDS011;60000;51.030;7.024;2023-04-29T12:16:00;26.38;;;13.00;;
72127;SDS011;60000;51.030;7.024;2023-04-29T12:18:25;27.88;;;12.82;;
72127;SDS011;60000;51.030;7.024;2023-04-29T12:20:51;24.80;;;11.70;;
72127;SDS011;60000;51.030;7.024;2023-04-29T12:23:20;25.50;;;12.63;;
72127;SDS011;60000;51.030;7.024;2023-04-29T12:25:48;28.50;;;13.38;;
72127;SDS011;60000;51.030;7.024;2023-04-29T12:28:22;28.63;;;14.25;;
72127;SDS011;60000;51.030;7.024;2023-04-29T12:30:48;28.20;;;13.80;;
72127;SDS011;60000;51.030;7.024;2023-04-29T12:33:25;25.75;;;13.30;;
72127;SDS011;60000;51.030;7.024;2023-04-29T12:35:52;25.48;;;12.48;;
72127;SDS011;60000;51.030;7.024;2023-04-29T12:38:22;24.55;;;12.75;;
72127;SDS011;60000;51.030;7.024;2023-04-29T12:40:50;23.98;;;12.32;;
72127;SDS011;60000;51.030;7.024;2023-04-29T12:43:17;28.33;;;14.90;;
72127;SDS011;60000;51.030;7.024;2023-04-29T12:45:42;29.35;;;15.10;;
72127;SDS011;60000;51.030;7.024;2023-04-29T12:48:08;31.40;;;16.80;;
72127;SDS011;60000;51.030;7.024;2023-04-29T12:50:36;34.17;;;17.40;;
72127;SDS011;60000;51.030;7.024;2023-04-29T12:53:02;29.25;;;15.07;;
72127;SDS011;60000;51.030;7.024;2023-04-29T12:55:30;24.08;;;12.23;;
72127;SDS011;60000;51.030;7.024;2023-04-29T12:57:57;27.80;;;14.15;;
72127;SDS011;60000;51.030;7.024;2023-04-29T13:00:23;22.17;;;12.20;;
72127;SDS011;60000;51.030;7.024;2023-04-29T13:02:49;20.93;;;11.70;;
72127;SDS011;60000;51.030;7.024;2023-04-29T13:05:14;18.75;;;10.63;;
72127;SDS011;60000;51.030;7.024;2023-04-29T13:07:39;23.23;;;12.07;;
72127;SDS011;60000;51.030;7.024;2023-04-29T13:10:06;20.83;;;12.05;;
72127;SDS011;60000;51.030;7.024;2023-04-29T13:12:32;26.87;;;13.17;;
72127;SDS011;60000;51.030;7.024;2023-04-29T13:14:57;21.38;;;11.93;;
72127;SDS011;60000;51.030;7.024;2023-04-29T13:17:23;21.13;;;11.73;;
72127;SDS011;60000;51.030;7.024;2023-04-29T13:19:48;25.93;;;13.90;;
72127;SDS011;60000;51.030;7.024;2023-04-29T13:22:14;23.98;;;12.80;;
72127;SDS011;60000;51.030;7.024;2023-04-29T13:24:40;24.80;;;12.60;;
72127;SDS011;60000;51.030;7.024;2023-04-29T13:27:05;22.80;;;12.37;;
72127;SDS011;60000;51.030;7.024;2023-04-29T13:29:30;25.07;;;13.27;;
72127;SDS011;60000;51.030;7.024;2023-04-29T13:37:09;21.58;;;11.25;;
72127;SDS011;60000;51.030;7.024;2023-04-29T13:39:35;19.85;;;11.15;;
72127;SDS011;60000;51.030;7.024;2023-04-29T13:42:00;19.13;;;10.97;;
72127;SDS011;60000;51.030;7.024;2023-04-29T13:44:26;20.03;;;10.97;;
72127;SDS011;60000;51.030;7.024;2023-04-29T13:46:51;22.23;;;11.40;;
72127;SDS011;60000;51.030;7.024;2023-04-29T13:49:16;17.30;;;9.15;;
72127;SDS011;60000;51.030;7.024;2023-04-29T13:51:42;18.67;;;10.33;;
72127;SDS011;60000;51.030;7.024;2023-04-29T13:54:07;20.27;;;11.60;;
72127;SDS011;60000;51.030;7.024;2023-04-29T13:56:32;20.83;;;11.30;;
72127;SDS011;60000;51.030;7.024;2023-04-29T13:58:58;22.67;;;11.50;;
72127;SDS011;60000;51.030;7.024;2023-04-29T14:01:23;20.03;;;11.03;;
72127;SDS011;60000;51.030;7.024;2023-04-29T14:03:48;17.60;;;9.60;;
72127;SDS011;60000;51.030;7.024;2023-04-29T14:06:13;22.80;;;12.70;;
72127;SDS011;60000;51.030;7.024;2023-04-29T14:08:39;22.67;;;12.65;;
72127;SDS011;60000;51.030;7.024;2023-04-29T14:11:05;21.07;;;11.37;;
72127;SDS011;60000;51.030;7.024;2023-04-29T14:13:31;27.13;;;12.25;;
72127;SDS011;60000;51.030;7.024;2023-04-29T14:15:56;17.07;;;9.70;;
72127;SDS011;60000;51.030;7.024;2023-04-29T14:18:23;19.55;;;10.13;;
72127;SDS011;60000;51.030;7.024;2023-04-29T14:20:49;17.40;;;9.33;;
72127;SDS011;60000;51.030;7.024;2023-04-29T14:23:14;16.43;;;10.07;;
72127;SDS011;60000;51.030;7.024;2023-04-29T14:25:39;15.80;;;9.33;;
72127;SDS011;60000;51.030;7.024;2023-04-29T14:28:04;17.88;;;9.55;;
72127;SDS011;60000;51.030;7.024;2023-04-29T14:30:30;15.98;;;9.68;;
72127;SDS011;60000;51.030;7.024;2023-04-29T14:32:55;17.93;;;10.13;;
72127;SDS011;60000;51.030;7.024;2023-04-29T14:35:21;15.25;;;8.43;;
72127;SDS011;60000;51.030;7.024;2023-04-29T14:37:47;19.57;;;10.07;;
72127;SDS011;60000;51.030;7.024;2023-04-29T14:40:12;17.80;;;9.87;;
72127;SDS011;60000;51.030;7.024;2023-04-29T14:42:37;15.47;;;9.27;;
72127;SDS011;60000;51.030;7.024;2023-04-29T14:45:03;15.70;;;9.23;;